createdAt,value
2017-07-04T00:01:12.677Z,5.10
2017-07-04T00:03:53.188Z,3.53
2017-07-04T00:06:36.507Z,3.20
2017-07-04T00:09:17.850Z,4.13
2017-07-04T00:11:59.735Z,3.53
2017-07-04T00:14:41.210Z,3.90
2017-07-04T00:17:27.385Z,3.90
2017-07-04T00:20:08.944Z,4.10
2017-07-04T00:22:52.471Z,2.83
2017-07-04T00:25:34.710Z,4.87
2017-07-04T00:28:16.534Z,5.90
2017-07-04T00:30:58.959Z,4.40
2017-07-04T00:33:40.517Z,3.70
2017-07-04T00:36:21.492Z,6.17
2017-07-04T00:39:02.831Z,3.87
2017-07-04T00:41:44.050Z,5.30
2017-07-04T00:44:26.676Z,4.53
2017-07-04T00:47:07.407Z,5.90
2017-07-04T00:49:50.036Z,5.43
2017-07-04T00:52:35.008Z,4.87
2017-07-04T00:55:16.600Z,7.80
2017-07-04T00:57:56.341Z,4.13
2017-07-04T01:00:37.010Z,6.17
2017-07-04T01:03:18.088Z,9.10
2017-07-04T01:05:58.269Z,5.47
2017-07-04T01:08:39.209Z,5.80
2017-07-04T01:11:20.188Z,5.03
2017-07-04T01:14:01.257Z,5.90
2017-07-04T01:16:46.008Z,6.17
2017-07-04T01:19:25.585Z,6.13
2017-07-04T01:22:04.879Z,5.13
2017-07-04T01:24:37.359Z,4.80
2017-07-04T01:27:07.086Z,5.63
2017-07-04T01:29:36.768Z,7.90
2017-07-04T01:32:10.050Z,7.93
2017-07-04T01:34:52.047Z,6.20
2017-07-04T01:37:31.193Z,7.47
2017-07-04T01:40:06.745Z,5.77
2017-07-04T01:42:44.589Z,6.60
2017-07-04T01:45:23.955Z,7.07
2017-07-04T01:48:02.767Z,8.90
2017-07-04T01:50:42.945Z,6.93
2017-07-04T01:53:23.512Z,9.37
2017-07-04T01:56:03.913Z,7.50
2017-07-04T01:58:40.086Z,8.97
2017-07-04T02:01:19.304Z,9.23
2017-07-04T02:04:00.497Z,9.17
2017-07-04T02:06:40.130Z,8.70
2017-07-04T02:09:14.451Z,9.00
2017-07-04T02:11:51.022Z,12.73
2017-07-04T02:14:29.014Z,10.57
2017-07-04T02:17:10.207Z,11.27
2017-07-04T02:19:52.218Z,10.37
2017-07-04T02:22:31.729Z,9.50
2017-07-04T02:25:12.821Z,10.03
2017-07-04T02:27:53.955Z,10.13
2017-07-04T02:30:35.131Z,9.47
2017-07-04T02:33:14.819Z,16.00
2017-07-04T02:35:56.754Z,11.90
2017-07-04T02:38:35.321Z,9.17
2017-07-04T02:41:16.103Z,7.50
2017-07-04T02:43:56.468Z,8.50
2017-07-04T02:46:37.559Z,9.83
2017-07-04T02:49:18.804Z,12.07
2017-07-04T02:51:59.613Z,10.27
2017-07-04T02:54:39.473Z,10.43
2017-07-04T02:57:19.471Z,9.37
2017-07-04T02:59:59.821Z,8.67
2017-07-04T03:02:40.977Z,6.40
2017-07-04T03:05:23.087Z,6.07
2017-07-04T03:08:05.391Z,6.67
2017-07-04T03:10:45.084Z,7.23
2017-07-04T03:13:25.948Z,8.07
2017-07-04T03:16:07.290Z,7.03
2017-07-04T03:18:46.582Z,5.90
2017-07-04T03:21:24.665Z,5.83
2017-07-04T03:24:06.677Z,4.30
2017-07-04T03:26:47.059Z,7.13
2017-07-04T03:29:28.267Z,7.37
2017-07-04T03:32:09.459Z,5.47
2017-07-04T03:34:48.733Z,4.80
2017-07-04T03:37:26.747Z,5.10
2017-07-04T03:40:08.115Z,7.80
2017-07-04T03:42:49.667Z,5.60
2017-07-04T03:45:30.443Z,5.77
2017-07-04T03:48:11.378Z,5.50
2017-07-04T03:50:52.568Z,7.63
2017-07-04T03:53:33.435Z,6.30
2017-07-04T03:56:14.057Z,4.50
2017-07-04T03:58:54.135Z,5.30
2017-07-04T04:01:34.537Z,5.40
2017-07-04T04:04:15.236Z,6.53
2017-07-04T04:06:55.992Z,4.60
2017-07-04T04:09:35.733Z,6.53
2017-07-04T04:12:16.038Z,6.77
2017-07-04T04:14:57.663Z,6.30
2017-07-04T04:17:39.220Z,4.47
2017-07-04T04:20:19.842Z,5.60
2017-07-04T04:23:00.083Z,4.20
2017-07-04T04:25:39.243Z,4.73
2017-07-04T04:28:17.230Z,6.03
2017-07-04T04:30:54.406Z,4.80
2017-07-04T04:33:33.818Z,6.70
2017-07-04T04:36:13.783Z,5.83
2017-07-04T04:38:53.008Z,5.30
2017-07-04T04:41:31.030Z,5.17
2017-07-04T04:44:12.478Z,6.30
2017-07-04T04:46:51.917Z,5.10
2017-07-04T04:49:31.332Z,5.23
2017-07-04T04:52:12.277Z,3.70
2017-07-04T04:54:53.321Z,5.90
2017-07-04T04:57:33.702Z,7.80
2017-07-04T05:00:13.576Z,4.80
2017-07-04T05:02:54.731Z,5.43
2017-07-04T05:05:36.314Z,5.90
2017-07-04T05:08:16.245Z,3.57
2017-07-04T05:10:52.260Z,3.70
2017-07-04T05:13:30.365Z,3.77
2017-07-04T05:16:10.709Z,4.10
2017-07-04T05:18:50.930Z,5.00
2017-07-04T05:21:32.011Z,4.13
2017-07-04T05:24:12.607Z,7.67
2017-07-04T05:26:53.151Z,4.03
2017-07-04T05:29:33.422Z,4.90
2017-07-04T05:32:15.101Z,4.47
2017-07-04T05:34:56.341Z,6.63
2017-07-04T05:37:37.764Z,4.80
2017-07-04T05:40:18.210Z,4.70
2017-07-04T05:42:59.491Z,7.33
2017-07-04T05:45:41.146Z,7.63
2017-07-04T05:48:22.068Z,5.53
2017-07-04T05:51:00.492Z,5.57
2017-07-04T05:53:41.890Z,5.60
2017-07-04T05:56:22.657Z,5.87
2017-07-04T05:59:04.970Z,11.50
2017-07-04T06:01:43.836Z,9.00
2017-07-04T06:04:25.289Z,5.67
2017-07-04T06:07:06.307Z,5.73
2017-07-04T06:09:47.327Z,8.33
2017-07-04T06:12:27.054Z,4.87
2017-07-04T06:14:59.482Z,5.20
2017-07-04T06:17:29.895Z,4.93
2017-07-04T06:19:59.619Z,8.50
2017-07-04T06:22:29.921Z,6.23
2017-07-04T06:24:59.734Z,4.97
2017-07-04T06:27:29.391Z,9.03
2017-07-04T06:29:59.058Z,4.40
2017-07-04T06:32:28.818Z,7.10
2017-07-04T06:35:06.811Z,6.47
2017-07-04T06:37:38.143Z,7.37
2017-07-04T06:40:08.594Z,9.03
2017-07-04T06:42:38.331Z,5.50
2017-07-04T06:45:08.810Z,6.07
2017-07-04T06:47:38.736Z,5.60
2017-07-04T06:50:08.506Z,6.07
2017-07-04T06:52:38.272Z,5.87
2017-07-04T06:55:08.018Z,6.77
2017-07-04T06:57:37.707Z,4.83
2017-07-04T07:00:07.372Z,4.80
2017-07-04T07:02:37.228Z,3.77
2017-07-04T07:05:07.254Z,5.73
2017-07-04T07:07:36.982Z,5.20
2017-07-04T07:10:06.713Z,4.60
2017-07-04T07:12:36.521Z,4.60
2017-07-04T07:15:06.241Z,4.73
2017-07-04T07:17:35.197Z,4.40
2017-07-04T07:20:04.938Z,3.80
2017-07-04T07:22:34.652Z,3.80
2017-07-04T07:25:04.387Z,4.00
2017-07-04T07:27:34.385Z,4.10
2017-07-04T07:30:04.077Z,4.07
2017-07-04T07:32:33.791Z,3.47
2017-07-04T07:35:04.047Z,3.57
2017-07-04T07:37:33.711Z,3.50
2017-07-04T07:40:03.433Z,3.37
2017-07-04T07:42:33.153Z,4.10
2017-07-04T07:45:02.823Z,4.60
2017-07-04T07:47:32.514Z,4.67
2017-07-04T07:50:02.254Z,3.40
2017-07-04T07:52:31.675Z,4.30
2017-07-04T07:55:01.456Z,5.73
2017-07-04T07:57:31.256Z,3.87
2017-07-04T08:00:00.981Z,3.87
2017-07-04T08:02:30.686Z,3.27
2017-07-04T08:05:00.462Z,4.03
2017-07-04T08:07:30.812Z,5.00
2017-07-04T08:10:00.730Z,4.10
2017-07-04T08:12:30.478Z,3.80
2017-07-04T08:15:00.261Z,4.03
2017-07-04T08:17:30.027Z,3.83
2017-07-04T08:19:59.806Z,6.30
2017-07-04T08:22:30.142Z,3.60
2017-07-04T08:24:59.863Z,5.27
2017-07-04T08:27:29.530Z,5.87
2017-07-04T08:29:59.986Z,4.70
2017-07-04T08:32:29.694Z,4.60
2017-07-04T08:34:59.434Z,4.00
2017-07-04T08:37:29.455Z,4.53
2017-07-04T08:39:59.114Z,4.50
2017-07-04T08:42:29.467Z,4.10
2017-07-04T08:44:59.187Z,4.13
2017-07-04T08:47:28.897Z,6.93
2017-07-04T08:49:58.229Z,8.40
2017-07-04T08:52:27.896Z,5.10
2017-07-04T08:54:58.413Z,4.37
2017-07-04T08:57:27.846Z,3.40
2017-07-04T08:59:57.619Z,5.40
2017-07-04T09:02:27.311Z,3.87
2017-07-04T09:04:56.981Z,5.40
2017-07-04T09:07:26.690Z,6.47
2017-07-04T09:09:56.478Z,3.67
2017-07-04T09:12:26.282Z,5.27
2017-07-04T09:14:56.148Z,4.13
2017-07-04T09:17:25.813Z,3.47
2017-07-04T09:19:55.695Z,4.63
2017-07-04T09:22:25.378Z,3.20
2017-07-04T09:24:55.167Z,4.80
2017-07-04T09:27:25.469Z,3.57
2017-07-04T09:29:55.184Z,10.03
2017-07-04T09:32:24.850Z,4.07
2017-07-04T09:34:54.541Z,4.17
2017-07-04T09:37:24.314Z,4.00
2017-07-04T09:39:53.962Z,3.83
2017-07-04T09:42:24.442Z,4.07
2017-07-04T09:44:54.109Z,3.80
2017-07-04T09:47:23.845Z,3.60
2017-07-04T09:49:54.486Z,5.83
2017-07-04T09:52:24.206Z,5.37
2017-07-04T09:54:53.966Z,5.97
2017-07-04T09:57:23.374Z,5.13
2017-07-04T09:59:53.735Z,4.40
2017-07-04T10:02:23.474Z,4.23
2017-07-04T10:04:53.198Z,3.90
2017-07-04T10:07:22.922Z,3.80
2017-07-04T10:09:52.575Z,4.50
2017-07-04T10:12:22.298Z,4.07
2017-07-04T10:14:51.991Z,5.20
2017-07-04T10:17:22.250Z,3.30
2017-07-04T10:19:51.937Z,3.50
2017-07-04T10:22:21.589Z,3.23
2017-07-04T10:24:51.329Z,3.57
2017-07-04T10:27:21.610Z,5.00
2017-07-04T10:29:51.265Z,4.30
2017-07-04T10:32:21.000Z,3.03
2017-07-04T10:34:50.671Z,3.80
2017-07-04T10:37:20.378Z,3.80
2017-07-04T10:39:50.727Z,3.07
2017-07-04T10:42:20.438Z,3.90
2017-07-04T10:44:50.151Z,2.73
2017-07-04T10:47:19.948Z,4.60
2017-07-04T10:49:49.492Z,3.33
2017-07-04T10:52:19.183Z,5.43
2017-07-04T10:54:49.386Z,4.37
2017-07-04T10:57:19.075Z,5.00
2017-07-04T10:59:48.744Z,4.17
2017-07-04T11:02:18.397Z,4.23
2017-07-04T11:04:48.190Z,3.57
2017-07-04T11:07:25.497Z,3.33
2017-07-04T11:09:59.111Z,4.23
2017-07-04T11:12:28.839Z,3.00
2017-07-04T11:14:58.771Z,3.70
2017-07-04T11:17:28.461Z,4.60
2017-07-04T11:19:59.087Z,6.47
2017-07-04T11:22:28.815Z,4.20
2017-07-04T11:24:58.191Z,5.50
2017-07-04T11:27:28.681Z,3.03
2017-07-04T11:29:58.498Z,3.83
2017-07-04T11:32:28.350Z,4.40
2017-07-04T11:34:58.674Z,2.90
2017-07-04T11:37:28.487Z,5.93
2017-07-04T11:39:57.907Z,4.27
2017-07-04T11:42:28.176Z,2.73
2017-07-04T11:44:57.909Z,3.53
2017-07-04T11:47:27.599Z,4.70
2017-07-04T11:49:58.095Z,2.87
2017-07-04T11:52:27.755Z,4.03
2017-07-04T11:54:57.507Z,3.00
2017-07-04T11:57:27.194Z,3.53
2017-07-04T11:59:56.985Z,2.80
2017-07-04T12:02:26.775Z,5.20
2017-07-04T12:04:56.497Z,2.87
2017-07-04T12:07:26.787Z,2.40
2017-07-04T12:10:04.353Z,4.10
2017-07-04T12:12:34.056Z,2.53
2017-07-04T12:15:04.305Z,2.70
2017-07-04T12:17:34.041Z,2.97
2017-07-04T12:20:03.721Z,3.10
2017-07-04T12:22:33.580Z,3.80
2017-07-04T12:25:03.894Z,3.27
2017-07-04T12:27:33.696Z,2.93
2017-07-04T12:30:03.515Z,2.30
2017-07-04T12:32:33.293Z,3.80
2017-07-04T12:35:03.583Z,3.07
2017-07-04T12:37:32.660Z,3.90
2017-07-04T12:40:02.352Z,3.83
2017-07-04T12:42:32.094Z,3.57
2017-07-04T12:45:01.786Z,4.50
2017-07-04T12:47:31.507Z,3.83
2017-07-04T12:50:01.254Z,4.13
2017-07-04T12:52:31.750Z,3.33
2017-07-04T12:55:01.486Z,2.80
2017-07-04T12:57:31.170Z,3.20
2017-07-04T13:00:00.838Z,2.77
2017-07-04T13:02:30.548Z,2.97
2017-07-04T13:05:00.201Z,3.10
2017-07-04T13:07:30.610Z,3.57
2017-07-04T13:10:00.318Z,3.13
2017-07-04T13:12:29.977Z,4.30
2017-07-04T13:14:59.701Z,3.20
2017-07-04T13:17:29.502Z,3.13
2017-07-04T13:19:59.268Z,4.13
2017-07-04T13:22:29.597Z,3.47
2017-07-04T13:24:59.294Z,4.83
2017-07-04T13:27:29.073Z,4.20
2017-07-04T13:29:58.867Z,5.17
2017-07-04T13:32:28.601Z,5.63
2017-07-04T13:34:58.266Z,3.43
2017-07-04T13:37:28.026Z,3.20
2017-07-04T13:39:57.720Z,3.43
2017-07-04T13:42:27.427Z,3.40
2017-07-04T13:44:57.296Z,3.67
2017-07-04T13:47:27.609Z,3.63
2017-07-04T13:49:57.300Z,4.23
2017-07-04T13:52:27.603Z,3.50
2017-07-04T13:54:58.070Z,3.77
2017-07-04T13:57:27.794Z,3.07
2017-07-04T13:59:57.490Z,3.40
2017-07-04T14:02:27.179Z,3.63
2017-07-04T14:04:56.957Z,3.00
2017-07-04T14:07:26.751Z,3.60
2017-07-04T14:09:57.114Z,3.30
2017-07-04T14:12:26.471Z,3.53
2017-07-04T14:14:56.535Z,4.67
2017-07-04T14:17:26.223Z,3.23
2017-07-04T14:19:56.013Z,3.20
2017-07-04T14:22:25.743Z,4.20
2017-07-04T14:24:55.556Z,2.90
2017-07-04T14:27:25.400Z,6.03
2017-07-04T14:29:55.173Z,3.50
2017-07-04T14:32:24.880Z,3.37
2017-07-04T14:34:54.666Z,7.10
2017-07-04T14:37:24.393Z,3.23
2017-07-04T14:39:54.920Z,5.00
2017-07-04T14:42:24.687Z,8.80
2017-07-04T14:44:54.386Z,3.50
2017-07-04T14:47:24.143Z,5.20
2017-07-04T14:49:54.444Z,3.63
2017-07-04T14:52:24.102Z,4.60
2017-07-04T14:54:54.017Z,3.53
2017-07-04T14:57:23.733Z,3.13
2017-07-04T14:59:54.139Z,5.20
2017-07-04T15:02:23.891Z,2.93
2017-07-04T15:04:53.547Z,5.80
2017-07-04T15:07:23.254Z,3.30
2017-07-04T15:09:52.948Z,3.33
2017-07-04T15:12:22.333Z,4.17
2017-07-04T15:14:52.758Z,5.30
2017-07-04T15:17:22.546Z,3.30
2017-07-04T15:19:51.919Z,3.50
2017-07-04T15:22:21.566Z,3.57
2017-07-04T15:24:51.354Z,3.00
2017-07-04T15:27:21.032Z,2.83
2017-07-04T15:29:50.394Z,3.47
2017-07-04T15:32:20.137Z,6.03
2017-07-04T15:34:49.847Z,5.40
2017-07-04T15:37:19.616Z,2.73
2017-07-04T15:39:49.373Z,6.13
2017-07-04T15:42:19.199Z,2.97
2017-07-04T15:44:49.445Z,2.60
2017-07-04T15:47:19.184Z,2.57
2017-07-04T15:49:48.863Z,2.53
2017-07-04T15:52:18.585Z,5.10
2017-07-04T15:54:48.324Z,4.90
2017-07-04T15:57:18.006Z,3.90
2017-07-04T15:59:47.720Z,4.23
2017-07-04T16:02:17.423Z,3.70
2017-07-04T16:04:47.136Z,2.53
2017-07-04T16:07:16.892Z,4.33
2017-07-04T16:09:46.583Z,4.30
2017-07-04T16:12:16.302Z,3.10
2017-07-04T16:14:46.010Z,2.30
2017-07-04T16:17:15.679Z,5.00
2017-07-04T16:19:45.460Z,1.90
2017-07-04T16:22:15.130Z,2.77
2017-07-04T16:24:44.987Z,4.30
2017-07-04T16:27:14.635Z,2.43
2017-07-04T16:29:44.919Z,4.70
2017-07-04T16:32:15.283Z,2.00
2017-07-04T16:34:45.023Z,2.30
2017-07-04T16:37:14.764Z,4.13
2017-07-04T16:39:44.618Z,3.93
2017-07-04T16:42:15.759Z,2.40
2017-07-04T16:44:45.413Z,2.30
2017-07-04T16:47:15.078Z,2.30
2017-07-04T16:49:44.904Z,3.53
2017-07-04T16:52:22.232Z,2.90
2017-07-04T16:55:01.780Z,3.03
2017-07-04T16:57:40.346Z,3.03
2017-07-04T17:00:23.168Z,4.50
2017-07-04T17:02:57.336Z,6.57
2017-07-04T17:05:26.306Z,2.13
2017-07-04T17:07:54.619Z,3.93
2017-07-04T17:10:24.353Z,3.77
2017-07-04T17:12:53.828Z,2.43
2017-07-04T17:15:23.548Z,3.93
2017-07-04T17:17:53.270Z,3.53
2017-07-04T17:20:25.292Z,2.63
2017-07-04T17:23:02.821Z,3.00
2017-07-04T17:25:40.948Z,4.00
2017-07-04T17:28:12.636Z,2.70
2017-07-04T17:30:42.407Z,2.80
2017-07-04T17:33:12.681Z,4.30
2017-07-04T17:35:43.135Z,6.40
2017-07-04T17:38:12.864Z,1.80
2017-07-04T17:40:42.606Z,2.07
2017-07-04T17:43:15.345Z,2.13
2017-07-04T17:45:45.285Z,2.87
2017-07-04T17:48:15.014Z,1.33
2017-07-04T17:50:44.830Z,2.20
2017-07-04T17:53:15.252Z,1.97
2017-07-04T17:55:45.780Z,4.57
2017-07-04T17:58:16.515Z,4.33
2017-07-04T18:00:47.287Z,4.33
2017-07-04T18:03:18.606Z,2.43
2017-07-04T18:05:56.466Z,2.87
2017-07-04T18:08:27.240Z,1.77
2017-07-04T18:10:57.034Z,2.83
2017-07-04T18:13:26.727Z,2.93
2017-07-04T18:15:56.493Z,1.90
2017-07-04T18:18:26.378Z,2.00
2017-07-04T18:20:56.886Z,8.33
2017-07-04T18:23:26.543Z,4.90
2017-07-04T18:25:56.472Z,2.90
2017-07-04T18:28:26.195Z,4.20
2017-07-04T18:30:55.983Z,2.73
2017-07-04T18:33:25.846Z,2.23
2017-07-04T18:35:55.598Z,2.30
2017-07-04T18:38:24.951Z,2.80
2017-07-04T18:40:54.657Z,2.13
2017-07-04T18:43:24.562Z,3.97
2017-07-04T18:45:57.665Z,4.97
2017-07-04T18:48:28.398Z,1.83
2017-07-04T18:50:58.106Z,2.30
2017-07-04T18:53:28.540Z,4.23
2017-07-04T18:56:06.740Z,2.93
2017-07-04T18:58:48.435Z,3.83
2017-07-04T19:01:29.300Z,4.97
2017-07-04T19:04:12.238Z,2.70
2017-07-04T19:06:53.776Z,2.90
2017-07-04T19:09:34.792Z,3.43
2017-07-04T19:12:14.863Z,3.57
2017-07-04T19:14:54.426Z,2.03
2017-07-04T19:17:33.589Z,3.23
2017-07-04T19:20:15.059Z,3.10
2017-07-04T19:22:56.359Z,1.77
2017-07-04T19:25:39.077Z,3.50
2017-07-04T19:28:21.468Z,2.90
2017-07-04T19:31:01.670Z,3.87
2017-07-04T19:33:41.896Z,2.83
2017-07-04T19:36:22.590Z,2.47
2017-07-04T19:39:05.900Z,1.67
2017-07-04T19:41:46.719Z,3.23
2017-07-04T19:44:28.488Z,3.23
2017-07-04T19:47:06.722Z,3.93
2017-07-04T19:49:44.458Z,2.03
2017-07-04T19:52:24.863Z,1.97
2017-07-04T19:55:06.447Z,1.83
2017-07-04T19:57:46.234Z,2.90
2017-07-04T20:00:28.148Z,2.23
2017-07-04T20:03:07.500Z,1.60
2017-07-04T20:05:47.909Z,1.93
2017-07-04T20:08:29.580Z,3.07
2017-07-04T20:11:11.354Z,2.77
2017-07-04T20:13:44.763Z,3.53
2017-07-04T20:16:17.971Z,2.70
2017-07-04T20:18:48.446Z,2.80
2017-07-04T20:21:19.538Z,1.87
2017-07-04T20:23:51.899Z,3.53
2017-07-04T20:26:22.654Z,2.03
2017-07-04T20:28:55.924Z,3.90
2017-07-04T20:31:31.151Z,2.03
2017-07-04T20:34:04.534Z,2.93
2017-07-04T20:36:34.058Z,2.53
2017-07-04T20:39:03.421Z,4.33
2017-07-04T20:41:33.087Z,4.17
2017-07-04T20:44:02.783Z,2.77
2017-07-04T20:46:32.459Z,5.33
2017-07-04T20:49:02.157Z,2.03
2017-07-04T20:51:31.933Z,2.73
2017-07-04T20:54:01.686Z,4.67
2017-07-04T20:56:31.813Z,2.30
2017-07-04T20:59:01.482Z,2.40
2017-07-04T21:01:31.243Z,2.83
2017-07-04T21:04:00.913Z,2.37
2017-07-04T21:06:30.587Z,1.97
2017-07-04T21:09:00.270Z,2.30
2017-07-04T21:11:30.762Z,2.40
2017-07-04T21:14:00.462Z,2.23
2017-07-04T21:16:30.120Z,5.00
2017-07-04T21:18:59.887Z,3.10
2017-07-04T21:21:29.667Z,2.97
2017-07-04T21:23:59.331Z,5.80
2017-07-04T21:26:29.091Z,2.37
2017-07-04T21:28:59.430Z,2.03
2017-07-04T21:31:29.180Z,1.60
2017-07-04T21:33:58.942Z,2.83
2017-07-04T21:36:29.267Z,4.40
2017-07-04T21:39:00.875Z,3.40
2017-07-04T21:41:31.146Z,2.50
2017-07-04T21:44:00.810Z,4.33
2017-07-04T21:46:30.518Z,4.30
2017-07-04T21:49:00.306Z,3.47
2017-07-04T21:51:29.995Z,2.57
2017-07-04T21:54:00.240Z,2.37
2017-07-04T21:56:30.724Z,2.50
2017-07-04T21:59:00.475Z,1.90
2017-07-04T22:01:30.911Z,2.30
2017-07-04T22:04:00.665Z,1.90
2017-07-04T22:06:30.370Z,4.07
2017-07-04T22:09:00.702Z,2.40
2017-07-04T22:11:30.415Z,3.63
2017-07-04T22:14:00.187Z,4.17
2017-07-04T22:16:29.824Z,2.73
2017-07-04T22:18:59.604Z,2.33
2017-07-04T22:21:29.598Z,2.40
2017-07-04T22:23:58.205Z,2.27
2017-07-04T22:26:27.762Z,4.27
2017-07-04T22:28:57.505Z,2.53
2017-07-04T22:31:27.257Z,2.60
2017-07-04T22:33:57.731Z,2.80
2017-07-04T22:36:27.496Z,3.57
2017-07-04T22:38:57.248Z,1.90
2017-07-04T22:41:26.639Z,6.10
2017-07-04T22:43:57.133Z,4.33
2017-07-04T22:46:26.855Z,3.37
2017-07-04T22:48:56.662Z,2.17
2017-07-04T22:51:26.344Z,3.93
2017-07-04T22:53:56.702Z,2.70
2017-07-04T22:56:26.410Z,2.17
2017-07-04T22:58:56.059Z,4.03
2017-07-04T23:01:25.793Z,3.43
2017-07-04T23:03:56.087Z,8.40
2017-07-04T23:06:25.879Z,3.33
2017-07-04T23:08:55.536Z,2.43
2017-07-04T23:11:26.778Z,2.13
2017-07-04T23:13:56.443Z,3.07
2017-07-04T23:16:26.101Z,2.10
2017-07-04T23:18:55.879Z,4.03
2017-07-04T23:21:31.277Z,5.23
2017-07-04T23:24:00.992Z,2.70
2017-07-04T23:26:30.737Z,2.50
2017-07-04T23:29:00.394Z,2.10
2017-07-04T23:31:30.477Z,3.27
2017-07-04T23:34:00.165Z,2.50
2017-07-04T23:36:30.819Z,4.43
2017-07-04T23:39:00.483Z,3.97
2017-07-04T23:41:30.162Z,4.60
2017-07-04T23:43:59.900Z,2.60
2017-07-04T23:46:29.587Z,3.00
2017-07-04T23:48:59.309Z,2.67
2017-07-04T23:51:29.164Z,4.33
2017-07-04T23:53:58.977Z,4.10
2017-07-04T23:56:28.667Z,2.97
2017-07-04T23:58:58.336Z,3.17
